sensor_id;sensor_type;location;lat;lon;timestamp;temperature;humidity
19090;DHT22;9677;50.656;13.064;2023-02-11T00:01:25;3.50;58.10
19090;DHT22;9677;50.656;13.064;2023-02-11T00:03:57;3.60;58.20
19090;DHT22;9677;50.656;13.064;2023-02-11T00:06:27;3.60;58.20
19090;DHT22;9677;50.656;13.064;2023-02-11T00:08:56;3.70;58.30
19090;DHT22;9677;50.656;13.064;2023-02-11T00:11:26;3.70;58.30
19090;DHT22;9677;50.656;13.064;2023-02-11T00:13:57;3.70;58.30
19090;DHT22;9677;50.656;13.064;2023-02-11T00:16:27;3.80;58.20
19090;DHT22;9677;50.656;13.064;2023-02-11T00:18:57;3.80;58.20
19090;DHT22;9677;50.656;13.064;2023-02-11T00:21:26;3.80;58.20
19090;DHT22;9677;50.656;13.064;2023-02-11T00:23:55;3.90;58.10
19090;DHT22;9677;50.656;13.064;2023-02-11T00:26:27;3.90;58.10
19090;DHT22;9677;50.656;13.064;2023-02-11T00:28:57;3.90;57.90
19090;DHT22;9677;50.656;13.064;2023-02-11T00:31:27;3.90;57.90
19090;DHT22;9677;50.656;13.064;2023-02-11T00:33:57;3.90;57.90
19090;DHT22;9677;50.656;13.064;2023-02-11T00:36:27;4.00;58.00
19090;DHT22;9677;50.656;13.064;2023-02-11T00:38:56;4.00;58.00
19090;DHT22;9677;50.656;13.064;2023-02-11T00:41:27;4.00;58.00
19090;DHT22;9677;50.656;13.064;2023-02-11T00:43:58;4.10;58.00
19090;DHT22;9677;50.656;13.064;2023-02-11T00:46:26;4.00;58.00
19090;DHT22;9677;50.656;13.064;2023-02-11T00:48:56;4.00;57.90
19090;DHT22;9677;50.656;13.064;2023-02-11T00:51:26;4.00;57.80
19090;DHT22;9677;50.656;13.064;2023-02-11T00:53:55;4.10;57.70
19090;DHT22;9677;50.656;13.064;2023-02-11T00:56:23;4.10;57.60
19090;DHT22;9677;50.656;13.064;2023-02-11T00:58:52;4.50;57.80
19090;DHT22;9677;50.656;13.064;2023-02-11T01:01:21;4.00;57.40
19090;DHT22;9677;50.656;13.064;2023-02-11T01:03:49;4.00;57.40
19090;DHT22;9677;50.656;13.064;2023-02-11T01:06:19;4.00;57.40
19090;DHT22;9677;50.656;13.064;2023-02-11T01:08:47;4.00;57.40
19090;DHT22;9677;50.656;13.064;2023-02-11T01:11:18;4.00;57.40
19090;DHT22;9677;50.656;13.064;2023-02-11T01:13:48;3.90;57.40
19090;DHT22;9677;50.656;13.064;2023-02-11T01:16:18;3.90;57.40
19090;DHT22;9677;50.656;13.064;2023-02-11T01:18:47;3.90;57.40
19090;DHT22;9677;50.656;13.064;2023-02-11T01:21:17;3.90;57.40
19090;DHT22;9677;50.656;13.064;2023-02-11T01:23:46;3.90;57.40
19090;DHT22;9677;50.656;13.064;2023-02-11T01:26:15;3.80;57.40
19090;DHT22;9677;50.656;13.064;2023-02-11T01:28:43;3.80;57.40
19090;DHT22;9677;50.656;13.064;2023-02-11T01:31:12;4.10;57.60
19090;DHT22;9677;50.656;13.064;2023-02-11T01:33:41;3.80;57.40
19090;DHT22;9677;50.656;13.064;2023-02-11T01:36:10;3.80;57.50
19090;DHT22;9677;50.656;13.064;2023-02-11T01:38:40;3.80;57.60
19090;DHT22;9677;50.656;13.064;2023-02-11T01:41:13;3.80;57.70
19090;DHT22;9677;50.656;13.064;2023-02-11T01:43:44;3.80;57.80
19090;DHT22;9677;50.656;13.064;2023-02-11T01:46:22;3.80;57.90
19090;DHT22;9677;50.656;13.064;2023-02-11T01:49:01;3.80;58.00
19090;DHT22;9677;50.656;13.064;2023-02-11T01:51:35;3.80;58.00
19090;DHT22;9677;50.656;13.064;2023-02-11T01:54:10;3.80;57.90
19090;DHT22;9677;50.656;13.064;2023-02-11T01:56:58;3.80;57.80
19090;DHT22;9677;50.656;13.064;2023-02-11T01:59:47;3.80;57.80
19090;DHT22;9677;50.656;13.064;2023-02-11T02:02:43;3.80;57.80
19090;DHT22;9677;50.656;13.064;2023-02-11T02:05:21;3.80;57.80
19090;DHT22;9677;50.656;13.064;2023-02-11T02:07:58;3.80;57.80
19090;DHT22;9677;50.656;13.064;2023-02-11T02:10:33;3.80;57.80
19090;DHT22;9677;50.656;13.064;2023-02-11T02:13:03;3.80;57.80
19090;DHT22;9677;50.656;13.064;2023-02-11T02:15:32;3.80;57.70
19090;DHT22;9677;50.656;13.064;2023-02-11T02:18:08;3.80;57.80
19090;DHT22;9677;50.656;13.064;2023-02-11T02:24:14;3.80;58.00
19090;DHT22;9677;50.656;13.064;2023-02-11T02:27:05;3.80;58.00
19090;DHT22;9677;50.656;13.064;2023-02-11T02:30:15;3.80;58.00
19090;DHT22;9677;50.656;13.064;2023-02-11T02:33:17;3.80;58.00
19090;DHT22;9677;50.656;13.064;2023-02-11T02:35:59;3.80;58.00
19090;DHT22;9677;50.656;13.064;2023-02-11T02:38:36;3.80;58.00
19090;DHT22;9677;50.656;13.064;2023-02-11T02:41:09;3.80;58.10
19090;DHT22;9677;50.656;13.064;2023-02-11T02:43:41;3.80;58.10
19090;DHT22;9677;50.656;13.064;2023-02-11T02:46:14;3.80;58.10
19090;DHT22;9677;50.656;13.064;2023-02-11T02:48:45;3.80;58.10
19090;DHT22;9677;50.656;13.064;2023-02-11T02:54:51;3.80;58.20
19090;DHT22;9677;50.656;13.064;2023-02-11T02:57:40;3.80;58.10
19090;DHT22;9677;50.656;13.064;2023-02-11T03:00:22;3.80;58.20
19090;DHT22;9677;50.656;13.064;2023-02-11T03:03:09;3.80;58.20
19090;DHT22;9677;50.656;13.064;2023-02-11T03:05:49;3.80;58.30
19090;DHT22;9677;50.656;13.064;2023-02-11T03:08:26;3.80;58.20
19090;DHT22;9677;50.656;13.064;2023-02-11T03:10:58;3.80;58.20
19090;DHT22;9677;50.656;13.064;2023-02-11T03:13:31;3.90;58.80
19090;DHT22;9677;50.656;13.064;2023-02-11T03:16:06;3.90;58.30
19090;DHT22;9677;50.656;13.064;2023-02-11T03:18:39;3.90;58.40
19090;DHT22;9677;50.656;13.064;2023-02-11T03:21:15;3.90;58.50
19090;DHT22;9677;50.656;13.064;2023-02-11T03:23:48;3.90;58.40
19090;DHT22;9677;50.656;13.064;2023-02-11T03:26:25;3.90;58.40
19090;DHT22;9677;50.656;13.064;2023-02-11T03:29:00;4.00;58.40
19090;DHT22;9677;50.656;13.064;2023-02-11T03:31:38;4.00;58.40
19090;DHT22;9677;50.656;13.064;2023-02-11T03:34:12;4.00;58.40
19090;DHT22;9677;50.656;13.064;2023-02-11T03:36:48;4.00;58.40
19090;DHT22;9677;50.656;13.064;2023-02-11T03:39:21;4.00;58.40
19090;DHT22;9677;50.656;13.064;2023-02-11T03:41:54;4.00;58.40
19090;DHT22;9677;50.656;13.064;2023-02-11T03:44:33;4.00;58.40
19090;DHT22;9677;50.656;13.064;2023-02-11T03:47:06;4.10;58.60
19090;DHT22;9677;50.656;13.064;2023-02-11T03:49:37;4.40;58.80
19090;DHT22;9677;50.656;13.064;2023-02-11T03:52:08;4.10;58.60
19090;DHT22;9677;50.656;13.064;2023-02-11T03:54:39;4.20;58.60
19090;DHT22;9677;50.656;13.064;2023-02-11T03:57:09;4.20;58.60
19090;DHT22;9677;50.656;13.064;2023-02-11T03:59:52;4.20;58.60
19090;DHT22;9677;50.656;13.064;2023-02-11T04:02:23;4.20;58.70
19090;DHT22;9677;50.656;13.064;2023-02-11T04:04:54;4.20;58.60
19090;DHT22;9677;50.656;13.064;2023-02-11T04:07:24;4.10;58.60
19090;DHT22;9677;50.656;13.064;2023-02-11T04:09:53;4.30;58.70
19090;DHT22;9677;50.656;13.064;2023-02-11T04:12:21;4.30;58.70
19090;DHT22;9677;50.656;13.064;2023-02-11T04:14:50;4.30;58.70
19090;DHT22;9677;50.656;13.064;2023-02-11T04:17:18;4.40;58.70
19090;DHT22;9677;50.656;13.064;2023-02-11T04:19:46;4.40;58.70
19090;DHT22;9677;50.656;13.064;2023-02-11T04:22:15;4.40;58.70
19090;DHT22;9677;50.656;13.064;2023-02-11T04:24:44;4.40;58.60
19090;DHT22;9677;50.656;13.064;2023-02-11T04:27:13;4.70;58.70
19090;DHT22;9677;50.656;13.064;2023-02-11T04:29:41;4.50;58.60
19090;DHT22;9677;50.656;13.064;2023-02-11T04:32:10;4.50;58.50
19090;DHT22;9677;50.656;13.064;2023-02-11T04:34:39;4.60;58.60
19090;DHT22;9677;50.656;13.064;2023-02-11T04:37:08;4.60;58.60
19090;DHT22;9677;50.656;13.064;2023-02-11T04:39:37;5.20;58.90
19090;DHT22;9677;50.656;13.064;2023-02-11T04:42:06;4.60;58.60
19090;DHT22;9677;50.656;13.064;2023-02-11T04:44:35;4.60;58.60
19090;DHT22;9677;50.656;13.064;2023-02-11T04:47:03;4.60;58.70
19090;DHT22;9677;50.656;13.064;2023-02-11T04:49:32;5.00;58.90
19090;DHT22;9677;50.656;13.064;2023-02-11T04:52:00;4.70;58.80
19090;DHT22;9677;50.656;13.064;2023-02-11T04:54:28;5.50;59.30
19090;DHT22;9677;50.656;13.064;2023-02-11T04:56:57;4.80;59.10
19090;DHT22;9677;50.656;13.064;2023-02-11T04:59:27;4.90;59.30
19090;DHT22;9677;50.656;13.064;2023-02-11T05:01:55;5.00;59.40
19090;DHT22;9677;50.656;13.064;2023-02-11T05:04:24;5.00;59.30
19090;DHT22;9677;50.656;13.064;2023-02-11T05:06:52;5.10;59.30
19090;DHT22;9677;50.656;13.064;2023-02-11T05:09:24;5.20;59.20
19090;DHT22;9677;50.656;13.064;2023-02-11T05:11:52;5.30;59.20
19090;DHT22;9677;50.656;13.064;2023-02-11T05:14:20;5.40;59.20
19090;DHT22;9677;50.656;13.064;2023-02-11T05:16:50;5.50;59.10
19090;DHT22;9677;50.656;13.064;2023-02-11T05:19:19;5.50;59.00
19090;DHT22;9677;50.656;13.064;2023-02-11T05:21:47;5.60;58.90
19090;DHT22;9677;50.656;13.064;2023-02-11T05:24:28;5.70;59.30
19090;DHT22;9677;50.656;13.064;2023-02-11T05:26:56;5.80;58.70
19090;DHT22;9677;50.656;13.064;2023-02-11T05:29:25;6.00;58.60
19090;DHT22;9677;50.656;13.064;2023-02-11T05:31:55;5.90;58.40
19090;DHT22;9677;50.656;13.064;2023-02-11T05:34:23;6.00;58.20
19090;DHT22;9677;50.656;13.064;2023-02-11T05:36:51;6.20;58.10
19090;DHT22;9677;50.656;13.064;2023-02-11T05:39:20;6.10;58.00
19090;DHT22;9677;50.656;13.064;2023-02-11T05:41:48;6.20;57.90
19090;DHT22;9677;50.656;13.064;2023-02-11T05:44:17;6.20;57.80
19090;DHT22;9677;50.656;13.064;2023-02-11T05:46:45;6.20;57.80
19090;DHT22;9677;50.656;13.064;2023-02-11T05:49:16;6.30;57.70
19090;DHT22;9677;50.656;13.064;2023-02-11T05:51:45;6.30;57.70
19090;DHT22;9677;50.656;13.064;2023-02-11T05:54:14;6.30;58.20
19090;DHT22;9677;50.656;13.064;2023-02-11T05:56:42;6.30;57.60
19090;DHT22;9677;50.656;13.064;2023-02-11T05:59:12;6.30;57.50
19090;DHT22;9677;50.656;13.064;2023-02-11T06:01:40;6.40;57.50
19090;DHT22;9677;50.656;13.064;2023-02-11T06:04:09;6.40;57.50
19090;DHT22;9677;50.656;13.064;2023-02-11T06:06:39;6.40;57.50
19090;DHT22;9677;50.656;13.064;2023-02-11T06:09:08;6.40;57.40
19090;DHT22;9677;50.656;13.064;2023-02-11T06:11:37;6.40;57.50
19090;DHT22;9677;50.656;13.064;2023-02-11T06:14:06;6.50;57.50
19090;DHT22;9677;50.656;13.064;2023-02-11T06:16:35;6.50;57.60
19090;DHT22;9677;50.656;13.064;2023-02-11T06:19:04;6.60;58.30
19090;DHT22;9677;50.656;13.064;2023-02-11T06:21:33;6.50;57.70
19090;DHT22;9677;50.656;13.064;2023-02-11T06:24:11;6.50;57.70
19090;DHT22;9677;50.656;13.064;2023-02-11T06:26:40;6.50;57.70
19090;DHT22;9677;50.656;13.064;2023-02-11T06:29:08;6.50;57.70
19090;DHT22;9677;50.656;13.064;2023-02-11T06:31:37;6.70;57.80
19090;DHT22;9677;50.656;13.064;2023-02-11T06:34:06;6.70;57.80
19090;DHT22;9677;50.656;13.064;2023-02-11T06:36:35;6.60;57.80
19090;DHT22;9677;50.656;13.064;2023-02-11T06:39:06;6.50;57.70
19090;DHT22;9677;50.656;13.064;2023-02-11T06:41:36;6.50;57.70
19090;DHT22;9677;50.656;13.064;2023-02-11T06:44:05;6.60;57.80
19090;DHT22;9677;50.656;13.064;2023-02-11T06:46:33;6.60;57.80
19090;DHT22;9677;50.656;13.064;2023-02-11T06:49:02;6.40;57.80
19090;DHT22;9677;50.656;13.064;2023-02-11T06:51:30;6.50;57.80
19090;DHT22;9677;50.656;13.064;2023-02-11T06:53:59;6.50;57.80
19090;DHT22;9677;50.656;13.064;2023-02-11T06:56:27;6.50;57.90
19090;DHT22;9677;50.656;13.064;2023-02-11T06:58:58;6.60;57.90
19090;DHT22;9677;50.656;13.064;2023-02-11T07:01:27;6.60;57.90
19090;DHT22;9677;50.656;13.064;2023-02-11T07:03:55;6.70;57.90
19090;DHT22;9677;50.656;13.064;2023-02-11T07:06:25;6.60;57.80
19090;DHT22;9677;50.656;13.064;2023-02-11T07:08:55;6.60;57.90
19090;DHT22;9677;50.656;13.064;2023-02-11T07:11:25;6.60;57.80
19090;DHT22;9677;50.656;13.064;2023-02-11T07:13:58;6.70;57.90
19090;DHT22;9677;50.656;13.064;2023-02-11T07:16:28;6.70;57.90
19090;DHT22;9677;50.656;13.064;2023-02-11T07:18:57;6.70;57.80
19090;DHT22;9677;50.656;13.064;2023-02-11T07:21:26;6.70;57.80
19090;DHT22;9677;50.656;13.064;2023-02-11T07:23:54;7.70;58.20
19090;DHT22;9677;50.656;13.064;2023-02-11T07:26:23;7.00;57.80
19090;DHT22;9677;50.656;13.064;2023-02-11T07:28:52;6.80;57.70
19090;DHT22;9677;50.656;13.064;2023-02-11T07:31:24;6.80;57.60
19090;DHT22;9677;50.656;13.064;2023-02-11T07:33:55;6.80;57.60
19090;DHT22;9677;50.656;13.064;2023-02-11T07:36:26;6.90;57.60
19090;DHT22;9677;50.656;13.064;2023-02-11T07:38:55;6.80;57.50
19090;DHT22;9677;50.656;13.064;2023-02-11T07:41:25;6.90;57.50
19090;DHT22;9677;50.656;13.064;2023-02-11T07:43:54;6.90;57.50
19090;DHT22;9677;50.656;13.064;2023-02-11T07:46:25;7.20;57.50
19090;DHT22;9677;50.656;13.064;2023-02-11T07:48:55;6.90;57.40
19090;DHT22;9677;50.656;13.064;2023-02-11T07:51:25;6.90;57.40
19090;DHT22;9677;50.656;13.064;2023-02-11T07:53:56;7.00;57.40
19090;DHT22;9677;50.656;13.064;2023-02-11T07:56:26;7.00;57.40
19090;DHT22;9677;50.656;13.064;2023-02-11T07:59:00;7.00;57.50
19090;DHT22;9677;50.656;13.064;2023-02-11T08:01:30;7.00;57.40
19090;DHT22;9677;50.656;13.064;2023-02-11T08:04:00;7.00;57.50
19090;DHT22;9677;50.656;13.064;2023-02-11T08:06:31;7.00;57.50
19090;DHT22;9677;50.656;13.064;2023-02-11T08:09:05;7.00;57.50
19090;DHT22;9677;50.656;13.064;2023-02-11T08:11:34;7.00;57.70
19090;DHT22;9677;50.656;13.064;2023-02-11T08:14:03;7.10;57.80
19090;DHT22;9677;50.656;13.064;2023-02-11T08:16:34;7.00;57.70
19090;DHT22;9677;50.656;13.064;2023-02-11T08:19:06;7.00;57.80
19090;DHT22;9677;50.656;13.064;2023-02-11T08:21:38;7.10;58.00
19090;DHT22;9677;50.656;13.064;2023-02-11T08:24:07;7.00;58.00
19090;DHT22;9677;50.656;13.064;2023-02-11T08:26:36;7.00;57.90
19090;DHT22;9677;50.656;13.064;2023-02-11T08:29:07;7.20;58.10
19090;DHT22;9677;50.656;13.064;2023-02-11T08:31:40;7.00;58.10
19090;DHT22;9677;50.656;13.064;2023-02-11T08:34:09;7.00;58.10
19090;DHT22;9677;50.656;13.064;2023-02-11T08:36:41;7.10;58.20
19090;DHT22;9677;50.656;13.064;2023-02-11T08:39:13;7.10;58.20
19090;DHT22;9677;50.656;13.064;2023-02-11T08:41:47;7.40;58.40
19090;DHT22;9677;50.656;13.064;2023-02-11T08:44:16;7.10;58.20
19090;DHT22;9677;50.656;13.064;2023-02-11T08:46:47;7.10;58.30
19090;DHT22;9677;50.656;13.064;2023-02-11T08:49:17;7.10;58.20
19090;DHT22;9677;50.656;13.064;2023-02-11T08:51:45;7.10;58.30
19090;DHT22;9677;50.656;13.064;2023-02-11T08:54:14;7.90;58.60
19090;DHT22;9677;50.656;13.064;2023-02-11T08:56:43;7.10;58.30
19090;DHT22;9677;50.656;13.064;2023-02-11T08:59:13;7.20;58.30
19090;DHT22;9677;50.656;13.064;2023-02-11T09:01:43;7.30;58.30
19090;DHT22;9677;50.656;13.064;2023-02-11T09:04:14;7.20;58.30
19090;DHT22;9677;50.656;13.064;2023-02-11T09:06:43;7.40;58.40
19090;DHT22;9677;50.656;13.064;2023-02-11T09:09:13;7.20;58.40
19090;DHT22;9677;50.656;13.064;2023-02-11T09:11:43;7.40;58.60
19090;DHT22;9677;50.656;13.064;2023-02-11T09:14:16;7.50;58.60
19090;DHT22;9677;50.656;13.064;2023-02-11T09:16:46;7.50;58.60
19090;DHT22;9677;50.656;13.064;2023-02-11T09:19:16;7.30;58.50
19090;DHT22;9677;50.656;13.064;2023-02-11T09:21:45;7.30;58.50
19090;DHT22;9677;50.656;13.064;2023-02-11T09:24:14;7.30;58.50
19090;DHT22;9677;50.656;13.064;2023-02-11T09:26:42;7.40;58.60
19090;DHT22;9677;50.656;13.064;2023-02-11T09:29:11;7.30;58.50
19090;DHT22;9677;50.656;13.064;2023-02-11T09:31:40;7.30;58.50
19090;DHT22;9677;50.656;13.064;2023-02-11T09:34:09;7.50;58.60
19090;DHT22;9677;50.656;13.064;2023-02-11T09:36:40;7.40;58.70
19090;DHT22;9677;50.656;13.064;2023-02-11T09:39:12;7.50;58.70
19090;DHT22;9677;50.656;13.064;2023-02-11T09:42:24;7.40;58.70
19090;DHT22;9677;50.656;13.064;2023-02-11T09:45:13;7.50;59.00
19090;DHT22;9677;50.656;13.064;2023-02-11T09:47:48;7.50;58.80
19090;DHT22;9677;50.656;13.064;2023-02-11T09:50:25;7.70;58.90
19090;DHT22;9677;50.656;13.064;2023-02-11T09:53:00;7.50;58.90
19090;DHT22;9677;50.656;13.064;2023-02-11T09:55:31;7.70;59.00
19090;DHT22;9677;50.656;13.064;2023-02-11T09:58:07;7.60;58.90
19090;DHT22;9677;50.656;13.064;2023-02-11T10:00:42;7.60;58.90
19090;DHT22;9677;50.656;13.064;2023-02-11T10:06:40;7.60;59.10
19090;DHT22;9677;50.656;13.064;2023-02-11T10:09:36;7.60;59.00
19090;DHT22;9677;50.656;13.064;2023-02-11T10:12:25;7.60;59.00
19090;DHT22;9677;50.656;13.064;2023-02-11T10:15:19;7.60;59.10
19090;DHT22;9677;50.656;13.064;2023-02-11T10:18:01;7.80;59.00
19090;DHT22;9677;50.656;13.064;2023-02-11T10:20:46;7.90;59.20
19090;DHT22;9677;50.656;13.064;2023-02-11T10:23:20;7.80;59.10
19090;DHT22;9677;50.656;13.064;2023-02-11T10:25:54;7.60;59.00
19090;DHT22;9677;50.656;13.064;2023-02-11T10:28:26;7.90;59.10
19090;DHT22;9677;50.656;13.064;2023-02-11T10:30:58;7.70;59.10
19090;DHT22;9677;50.656;13.064;2023-02-11T10:33:30;7.70;59.00
19090;DHT22;9677;50.656;13.064;2023-02-11T10:36:03;7.70;59.00
19090;DHT22;9677;50.656;13.064;2023-02-11T10:38:32;7.70;59.00
19090;DHT22;9677;50.656;13.064;2023-02-11T10:41:04;7.90;59.10
19090;DHT22;9677;50.656;13.064;2023-02-11T10:43:33;7.70;59.00
19090;DHT22;9677;50.656;13.064;2023-02-11T10:46:03;7.70;59.00
19090;DHT22;9677;50.656;13.064;2023-02-11T10:48:38;7.70;59.10
19090;DHT22;9677;50.656;13.064;2023-02-11T10:51:20;7.70;59.10
19090;DHT22;9677;50.656;13.064;2023-02-11T10:53:50;7.80;59.20
19090;DHT22;9677;50.656;13.064;2023-02-11T10:56:44;7.80;59.10
19090;DHT22;9677;50.656;13.064;2023-02-11T10:59:20;7.80;59.20
19090;DHT22;9677;50.656;13.064;2023-02-11T11:01:53;7.80;59.20
19090;DHT22;9677;50.656;13.064;2023-02-11T11:04:39;7.80;59.20
19090;DHT22;9677;50.656;13.064;2023-02-11T11:07:19;7.80;59.30
19090;DHT22;9677;50.656;13.064;2023-02-11T11:09:52;7.90;59.20
19090;DHT22;9677;50.656;13.064;2023-02-11T11:12:32;7.90;59.30
19090;DHT22;9677;50.656;13.064;2023-02-11T11:15:17;7.90;59.20
19090;DHT22;9677;50.656;13.064;2023-02-11T11:17:48;7.90;59.30
19090;DHT22;9677;50.656;13.064;2023-02-11T11:20:24;7.90;59.20
19090;DHT22;9677;50.656;13.064;2023-02-11T11:23:10;8.20;59.30
19090;DHT22;9677;50.656;13.064;2023-02-11T11:25:45;8.10;59.70
19090;DHT22;9677;50.656;13.064;2023-02-11T11:28:27;8.00;59.40
19090;DHT22;9677;50.656;13.064;2023-02-11T11:30:58;8.00;59.30
19090;DHT22;9677;50.656;13.064;2023-02-11T11:33:29;8.10;59.30
19090;DHT22;9677;50.656;13.064;2023-02-11T11:36:03;8.30;59.40
19090;DHT22;9677;50.656;13.064;2023-02-11T11:38:36;8.10;59.30
19090;DHT22;9677;50.656;13.064;2023-02-11T11:41:27;8.10;59.30
19090;DHT22;9677;50.656;13.064;2023-02-11T11:44:01;8.10;59.50
19090;DHT22;9677;50.656;13.064;2023-02-11T11:46:39;8.20;59.40
19090;DHT22;9677;50.656;13.064;2023-02-11T11:49:16;8.20;59.30
19090;DHT22;9677;50.656;13.064;2023-02-11T11:51:55;8.20;59.30
19090;DHT22;9677;50.656;13.064;2023-02-11T11:54:30;8.20;59.20
19090;DHT22;9677;50.656;13.064;2023-02-11T11:57:10;8.20;59.20
19090;DHT22;9677;50.656;13.064;2023-02-11T11:59:41;8.30;59.30
19090;DHT22;9677;50.656;13.064;2023-02-11T12:02:38;8.30;59.20
19090;DHT22;9677;50.656;13.064;2023-02-11T12:05:25;8.30;59.30
19090;DHT22;9677;50.656;13.064;2023-02-11T12:08:02;8.30;59.20
19090;DHT22;9677;50.656;13.064;2023-02-11T12:13:59;8.40;59.30
19090;DHT22;9677;50.656;13.064;2023-02-11T12:16:42;8.40;59.20
19090;DHT22;9677;50.656;13.064;2023-02-11T12:19:43;8.50;59.20
19090;DHT22;9677;50.656;13.064;2023-02-11T12:22:30;8.40;59.20
19090;DHT22;9677;50.656;13.064;2023-02-11T12:25:24;8.50;59.20
19090;DHT22;9677;50.656;13.064;2023-02-11T12:28:04;8.50;59.20
19090;DHT22;9677;50.656;13.064;2023-02-11T12:30:50;8.50;59.10
19090;DHT22;9677;50.656;13.064;2023-02-11T12:33:42;8.50;59.10
19090;DHT22;9677;50.656;13.064;2023-02-11T12:36:30;8.50;59.10
19090;DHT22;9677;50.656;13.064;2023-02-11T12:39:17;8.60;59.10
19090;DHT22;9677;50.656;13.064;2023-02-11T12:42:08;8.60;59.00
19090;DHT22;9677;50.656;13.064;2023-02-11T12:45:15;8.60;59.00
19090;DHT22;9677;50.656;13.064;2023-02-11T12:47:59;8.60;59.00
19090;DHT22;9677;50.656;13.064;2023-02-11T12:50:42;8.60;59.00
19090;DHT22;9677;50.656;13.064;2023-02-11T12:53:38;8.60;58.90
19090;DHT22;9677;50.656;13.064;2023-02-11T12:56:15;8.60;59.00
19090;DHT22;9677;50.656;13.064;2023-02-11T12:58:48;8.70;59.00
19090;DHT22;9677;50.656;13.064;2023-02-11T13:01:19;8.60;59.30
19090;DHT22;9677;50.656;13.064;2023-02-11T13:03:53;8.60;59.00
19090;DHT22;9677;50.656;13.064;2023-02-11T13:06:29;8.60;58.90
19090;DHT22;9677;50.656;13.064;2023-02-11T13:09:05;8.80;59.10
19090;DHT22;9677;50.656;13.064;2023-02-11T13:11:40;8.70;59.00
19090;DHT22;9677;50.656;13.064;2023-02-11T13:14:15;8.70;59.20
19090;DHT22;9677;50.656;13.064;2023-02-11T13:16:49;8.70;59.20
19090;DHT22;9677;50.656;13.064;2023-02-11T13:19:24;8.70;59.10
19090;DHT22;9677;50.656;13.064;2023-02-11T13:22:04;8.70;59.20
19090;DHT22;9677;50.656;13.064;2023-02-11T13:24:41;8.70;59.20
19090;DHT22;9677;50.656;13.064;2023-02-11T13:27:21;8.70;59.20
19090;DHT22;9677;50.656;13.064;2023-02-11T13:30:17;8.80;59.40
19090;DHT22;9677;50.656;13.064;2023-02-11T13:33:19;8.70;59.30
19090;DHT22;9677;50.656;13.064;2023-02-11T13:36:11;8.70;59.30
19090;DHT22;9677;50.656;13.064;2023-02-11T13:38:58;8.70;59.40
19090;DHT22;9677;50.656;13.064;2023-02-11T13:41:33;8.70;59.30
19090;DHT22;9677;50.656;13.064;2023-02-11T13:44:18;8.70;59.30
19090;DHT22;9677;50.656;13.064;2023-02-11T13:46:58;8.70;59.40
19090;DHT22;9677;50.656;13.064;2023-02-11T13:49:34;8.70;59.50
19090;DHT22;9677;50.656;13.064;2023-02-11T13:52:22;8.70;59.50
19090;DHT22;9677;50.656;13.064;2023-02-11T13:54:54;8.70;59.50
19090;DHT22;9677;50.656;13.064;2023-02-11T13:57:31;8.70;59.40
19090;DHT22;9677;50.656;13.064;2023-02-11T14:03:23;8.70;59.50
19090;DHT22;9677;50.656;13.064;2023-02-11T14:06:26;8.70;59.60
19090;DHT22;9677;50.656;13.064;2023-02-11T14:09:39;8.70;59.50
19090;DHT22;9677;50.656;13.064;2023-02-11T14:12:31;8.90;59.50
19090;DHT22;9677;50.656;13.064;2023-02-11T14:15:20;8.70;59.50
19090;DHT22;9677;50.656;13.064;2023-02-11T14:17:52;8.80;59.50
19090;DHT22;9677;50.656;13.064;2023-02-11T14:20:41;8.80;59.30
19090;DHT22;9677;50.656;13.064;2023-02-11T14:23:23;8.80;59.50
19090;DHT22;9677;50.656;13.064;2023-02-11T14:26:23;8.80;59.50
19090;DHT22;9677;50.656;13.064;2023-02-11T14:29:01;8.80;59.40
19090;DHT22;9677;50.656;13.064;2023-02-11T14:31:39;8.80;59.50
19090;DHT22;9677;50.656;13.064;2023-02-11T14:34:37;8.80;59.40
19090;DHT22;9677;50.656;13.064;2023-02-11T14:37:19;8.80;59.50
19090;DHT22;9677;50.656;13.064;2023-02-11T14:39:58;8.80;59.40
19090;DHT22;9677;50.656;13.064;2023-02-11T14:42:31;8.80;59.50
19090;DHT22;9677;50.656;13.064;2023-02-11T14:45:04;8.80;59.40
19090;DHT22;9677;50.656;13.064;2023-02-11T14:47:40;8.80;59.40
19090;DHT22;9677;50.656;13.064;2023-02-11T14:50:16;8.80;59.40
19090;DHT22;9677;50.656;13.064;2023-02-11T14:52:48;8.80;59.40
19090;DHT22;9677;50.656;13.064;2023-02-11T14:55:29;8.80;59.50
19090;DHT22;9677;50.656;13.064;2023-02-11T14:58:15;8.80;59.50
19090;DHT22;9677;50.656;13.064;2023-02-11T15:00:53;8.90;59.60
19090;DHT22;9677;50.656;13.064;2023-02-11T15:03:36;9.00;59.60
19090;DHT22;9677;50.656;13.064;2023-02-11T15:06:15;8.80;59.40
19090;DHT22;9677;50.656;13.064;2023-02-11T15:08:48;8.80;59.40
19090;DHT22;9677;50.656;13.064;2023-02-11T15:11:20;8.90;59.40
19090;DHT22;9677;50.656;13.064;2023-02-11T15:13:51;8.80;59.40
19090;DHT22;9677;50.656;13.064;2023-02-11T15:16:22;8.80;59.50
19090;DHT22;9677;50.656;13.064;2023-02-11T15:18:54;8.90;59.50
19090;DHT22;9677;50.656;13.064;2023-02-11T15:21:25;8.80;59.60
19090;DHT22;9677;50.656;13.064;2023-02-11T15:23:58;8.80;59.50
19090;DHT22;9677;50.656;13.064;2023-02-11T15:26:27;8.90;59.60
19090;DHT22;9677;50.656;13.064;2023-02-11T15:28:58;8.80;59.60
19090;DHT22;9677;50.656;13.064;2023-02-11T15:31:27;8.80;59.60
19090;DHT22;9677;50.656;13.064;2023-02-11T15:34:06;8.80;59.60
19090;DHT22;9677;50.656;13.064;2023-02-11T15:36:34;8.80;59.70
19090;DHT22;9677;50.656;13.064;2023-02-11T15:39:18;8.80;59.70
19090;DHT22;9677;50.656;13.064;2023-02-11T15:42:18;8.80;59.80
19090;DHT22;9677;50.656;13.064;2023-02-11T15:45:08;8.80;59.80
19090;DHT22;9677;50.656;13.064;2023-02-11T15:47:39;8.80;59.90
19090;DHT22;9677;50.656;13.064;2023-02-11T15:50:19;8.80;59.80
19090;DHT22;9677;50.656;13.064;2023-02-11T15:52:49;8.80;59.90
19090;DHT22;9677;50.656;13.064;2023-02-11T15:55:18;8.80;59.90
19090;DHT22;9677;50.656;13.064;2023-02-11T15:57:51;8.70;59.80
19090;DHT22;9677;50.656;13.064;2023-02-11T16:00:25;8.70;59.70
19090;DHT22;9677;50.656;13.064;2023-02-11T16:02:59;8.70;59.80
19090;DHT22;9677;50.656;13.064;2023-02-11T16:05:30;8.90;59.90
19090;DHT22;9677;50.656;13.064;2023-02-11T16:08:16;8.80;59.90
19090;DHT22;9677;50.656;13.064;2023-02-11T16:10:55;8.70;59.90
19090;DHT22;9677;50.656;13.064;2023-02-11T16:13:25;8.70;59.90
19090;DHT22;9677;50.656;13.064;2023-02-11T16:15:59;8.70;60.10
19090;DHT22;9677;50.656;13.064;2023-02-11T16:18:33;8.70;60.00
19090;DHT22;9677;50.656;13.064;2023-02-11T16:21:12;8.70;60.00
19090;DHT22;9677;50.656;13.064;2023-02-11T16:23:49;8.70;60.00
19090;DHT22;9677;50.656;13.064;2023-02-11T16:26:23;8.70;60.00
19090;DHT22;9677;50.656;13.064;2023-02-11T16:29:02;8.70;60.10
19090;DHT22;9677;50.656;13.064;2023-02-11T16:31:36;8.70;60.20
19090;DHT22;9677;50.656;13.064;2023-02-11T16:34:13;8.70;60.10
19090;DHT22;9677;50.656;13.064;2023-02-11T16:36:43;8.70;60.40
19090;DHT22;9677;50.656;13.064;2023-02-11T16:39:13;8.80;60.40
19090;DHT22;9677;50.656;13.064;2023-02-11T16:41:42;8.70;60.30
19090;DHT22;9677;50.656;13.064;2023-02-11T16:44:11;8.70;60.30
19090;DHT22;9677;50.656;13.064;2023-02-11T16:46:41;8.70;60.30
19090;DHT22;9677;50.656;13.064;2023-02-11T16:49:14;8.60;60.30